Ana Sayfa
METAR-TAF:

METAR-TAF

Havaalanları :

Raton Municipal Airport (Crews Field)

Raton, New Mexico, Amerika Birleşik Devletleri

Enlem: 36-44-31N, Boylam: 104-39-28W, yükseklik: 1935 m

Güncel hava durumu gözlemi

Rapor saat 12:53 UTC de 45 dakika önce yapıldı.
Rüzgar doğu/kuzeydoğudan 5 kt
Sıcaklık -6°C
Nem 79%
Basınç 1017 hPa
Görüş mesafesi: 16.1 km
Açık gökyüzü

METAR: KRTN 291253Z AUTO 06005KT 10SM CLR M06/M09 A3002 RMK AO2 SLP180 T10611094

Saat: 06:38 (13:38 UTC)


TAF: eksik

4.000'den fazla havaalanı için hava durumu gözlemleri ve tahminleri (METAR ve TAF raporları).

Kullanılabilir istasyonlar harita üzerinde sarı ve kırmızı noktalarla gösterilir.

İstasyonun adını görmek için fareyi noktanın üzerinde gezdirin.

Sonrasında hava gözlem ve tahminlerini görmek için tıklayın.

Haritayı değiştirmek için: yaklaştırmak için siyah artı işaretli yeşil düğmeye ve uzaklaştırmak için de eksi işaretli düğmeye hızla tıklayın; bitişik haritalar için yeşil okları kullanın.


METAR-TAF: